createdAt,value
2018-11-11T00:00:22.218Z,5.33
2018-11-11T00:02:50.969Z,5.03
2018-11-11T00:05:18.387Z,6.07
2018-11-11T00:07:45.824Z,8.33
2018-11-11T00:10:13.220Z,6.77
2018-11-11T00:12:40.601Z,5.40
2018-11-11T00:15:09.382Z,7.10
2018-11-11T00:17:36.767Z,7.90
2018-11-11T00:20:04.589Z,6.90
2018-11-11T00:22:31.956Z,5.80
2018-11-11T00:24:59.497Z,6.07
2018-11-11T00:27:26.872Z,6.83
2018-11-11T00:29:54.371Z,6.43
2018-11-11T00:32:21.762Z,5.77
2018-11-11T00:34:49.128Z,8.90
2018-11-11T00:37:16.536Z,6.83
2018-11-11T00:39:43.946Z,6.60
2018-11-11T00:42:11.645Z,6.87
2018-11-11T00:44:38.998Z,7.00
2018-11-11T00:47:06.407Z,7.60
2018-11-11T00:49:33.732Z,7.27
2018-11-11T00:52:01.070Z,7.60
2018-11-11T00:54:28.607Z,7.57
2018-11-11T00:56:55.951Z,7.77
2018-11-11T00:59:23.337Z,7.80
2018-11-11T01:01:50.969Z,7.07
2018-11-11T01:04:18.426Z,6.93
2018-11-11T01:06:45.781Z,6.83
2018-11-11T01:09:13.236Z,6.50
2018-11-11T01:11:40.662Z,7.57
2018-11-11T01:14:08.025Z,6.63
2018-11-11T01:16:35.407Z,6.27
2018-11-11T01:19:02.896Z,6.90
2018-11-11T01:21:30.268Z,6.60
2018-11-11T01:23:57.621Z,9.30
2018-11-11T01:26:25.253Z,7.37
2018-11-11T01:28:52.640Z,6.73
2018-11-11T01:31:19.970Z,8.73
2018-11-11T01:33:47.392Z,7.10
2018-11-11T01:36:14.744Z,6.83
2018-11-11T01:38:42.147Z,7.50
2018-11-11T01:41:09.482Z,7.67
2018-11-11T01:43:36.850Z,7.53
2018-11-11T01:46:04.416Z,8.33
2018-11-11T01:48:31.771Z,7.70
2018-11-11T01:50:59.111Z,8.60
2018-11-11T01:53:26.521Z,7.07
2018-11-11T01:55:53.867Z,8.37
2018-11-11T01:58:21.246Z,7.70
2018-11-11T02:00:48.795Z,7.93
2018-11-11T02:03:16.204Z,10.60
2018-11-11T02:05:43.650Z,7.70
2018-11-11T02:08:11.118Z,8.27
2018-11-11T02:10:38.732Z,9.10
2018-11-11T02:13:06.079Z,8.23
2018-11-11T02:15:33.485Z,8.50
2018-11-11T02:18:01.178Z,8.37
2018-11-11T02:20:28.534Z,8.37
2018-11-11T02:22:56.145Z,9.20
2018-11-11T02:25:23.656Z,9.10
2018-11-11T02:27:51.079Z,8.73
2018-11-11T02:30:20.541Z,9.13
2018-11-11T02:32:48.150Z,9.23
2018-11-11T02:35:15.578Z,8.83
2018-11-11T02:37:43.369Z,8.70
2018-11-11T02:40:14.885Z,8.37
2018-11-11T02:42:42.614Z,8.00
2018-11-11T02:45:11.357Z,7.70
2018-11-11T02:47:38.723Z,7.53
2018-11-11T02:50:06.812Z,8.00
2018-11-11T02:52:34.266Z,8.33
2018-11-11T02:55:01.805Z,7.90
2018-11-11T02:57:29.209Z,11.23
2018-11-11T02:59:56.615Z,7.87
2018-11-11T03:02:24.062Z,7.07
2018-11-11T03:04:51.449Z,8.17
2018-11-11T03:07:18.806Z,8.13
2018-11-11T03:09:46.171Z,10.67
2018-11-11T03:12:13.668Z,7.40
2018-11-11T03:14:41.066Z,8.10
2018-11-11T03:17:08.469Z,9.40
2018-11-11T03:19:35.953Z,10.43
2018-11-11T03:22:03.279Z,8.47
2018-11-11T03:24:31.038Z,9.77
2018-11-11T03:26:58.418Z,8.50
2018-11-11T03:29:25.794Z,9.07
2018-11-11T03:31:53.184Z,9.33
2018-11-11T03:34:20.542Z,8.73
2018-11-11T03:36:48.319Z,10.57
2018-11-11T03:39:15.840Z,8.90
2018-11-11T03:41:43.183Z,9.43
2018-11-11T03:44:10.550Z,9.53
2018-11-11T03:46:38.145Z,9.20
2018-11-11T03:49:05.527Z,9.40
2018-11-11T03:51:33.103Z,10.93
2018-11-11T03:54:00.516Z,9.90
2018-11-11T03:56:27.883Z,9.40
2018-11-11T03:58:55.346Z,10.20
2018-11-11T04:01:23.032Z,10.40
2018-11-11T04:03:50.401Z,10.17
2018-11-11T04:06:17.839Z,10.40
2018-11-11T04:08:45.576Z,11.30
2018-11-11T04:11:12.953Z,10.07
2018-11-11T04:13:40.312Z,10.33
2018-11-11T04:16:07.838Z,10.40
2018-11-11T04:18:35.215Z,10.90
2018-11-11T04:21:02.558Z,9.10
2018-11-11T04:23:29.920Z,12.03
2018-11-11T04:25:57.289Z,9.67
2018-11-11T04:28:24.626Z,9.97
2018-11-11T04:30:51.986Z,8.80
2018-11-11T04:33:19.797Z,7.97
2018-11-11T04:35:47.199Z,8.87
2018-11-11T04:38:14.503Z,8.73
2018-11-11T04:40:41.919Z,9.00
2018-11-11T04:43:09.257Z,8.33
2018-11-11T04:45:36.603Z,8.00
2018-11-11T04:48:03.942Z,8.10
2018-11-11T04:50:31.270Z,8.17
2018-11-11T04:52:58.675Z,7.90
2018-11-11T04:55:26.075Z,8.60
2018-11-11T04:57:53.793Z,6.97
2018-11-11T05:00:21.611Z,9.10
2018-11-11T05:02:49.028Z,9.03
2018-11-11T05:05:16.522Z,8.63
2018-11-11T05:07:43.958Z,7.97
2018-11-11T05:10:11.837Z,9.90
2018-11-11T05:12:39.187Z,10.40
2018-11-11T05:15:07.429Z,10.03
2018-11-11T05:17:34.839Z,9.57
2018-11-11T05:20:02.292Z,9.60
2018-11-11T05:22:29.706Z,9.03
2018-11-11T05:24:57.152Z,9.43
2018-11-11T05:27:24.460Z,8.30
2018-11-11T05:29:51.884Z,9.13
2018-11-11T05:32:19.251Z,7.33
2018-11-11T05:34:46.627Z,10.10
2018-11-11T05:37:14.070Z,11.20
2018-11-11T05:39:41.404Z,8.73
2018-11-11T05:42:08.706Z,8.03
2018-11-11T05:44:36.025Z,7.90
2018-11-11T05:47:03.434Z,8.40
2018-11-11T05:49:30.845Z,7.40
2018-11-11T05:51:58.213Z,9.30
2018-11-11T05:54:25.786Z,8.97
2018-11-11T05:56:53.191Z,8.47
2018-11-11T05:59:20.958Z,9.83
2018-11-11T06:01:48.323Z,7.93
2018-11-11T06:04:15.929Z,10.70
2018-11-11T06:06:43.238Z,13.47
2018-11-11T06:09:11.294Z,10.93
2018-11-11T06:11:39.270Z,10.07
2018-11-11T06:14:06.619Z,11.00
2018-11-11T06:16:33.988Z,8.23
2018-11-11T06:19:01.288Z,7.63
2018-11-11T06:21:28.709Z,7.43
2018-11-11T06:23:56.050Z,9.93
2018-11-11T06:26:23.391Z,7.70
2018-11-11T06:28:50.743Z,8.27
2018-11-11T06:31:18.062Z,10.83
2018-11-11T06:33:45.593Z,10.70
2018-11-11T06:36:12.935Z,6.37
2018-11-11T06:38:40.301Z,8.10
2018-11-11T06:41:07.627Z,6.37
2018-11-11T06:43:35.068Z,11.93
2018-11-11T06:46:02.444Z,6.07
2018-11-11T06:48:30.182Z,6.57
2018-11-11T06:50:57.631Z,9.30
2018-11-11T06:53:24.974Z,7.03
2018-11-11T06:55:52.436Z,9.10
2018-11-11T06:58:19.766Z,6.87
2018-11-11T07:00:47.084Z,8.73
2018-11-11T07:03:20.066Z,7.40
2018-11-11T07:05:47.410Z,10.67
2018-11-11T07:08:14.734Z,6.80
2018-11-11T07:10:42.062Z,8.30
2018-11-11T07:13:09.433Z,6.63
2018-11-11T07:15:36.860Z,8.13
2018-11-11T07:18:04.601Z,9.13
2018-11-11T07:20:32.036Z,7.17
2018-11-11T07:22:59.450Z,9.87
2018-11-11T07:25:26.834Z,8.17
2018-11-11T07:27:54.255Z,10.07
2018-11-11T07:30:21.686Z,6.10
2018-11-11T07:32:49.006Z,7.73
2018-11-11T07:35:16.327Z,6.27
2018-11-11T07:37:43.637Z,5.90
2018-11-11T07:40:12.861Z,5.10
2018-11-11T07:42:40.347Z,5.27
2018-11-11T07:45:07.741Z,3.60
2018-11-11T07:47:35.306Z,5.33
2018-11-11T07:50:02.764Z,3.10
2018-11-11T07:52:30.366Z,2.73
2018-11-11T07:54:57.765Z,4.40
2018-11-11T07:57:25.156Z,2.83
2018-11-11T07:59:52.471Z,4.43
2018-11-11T08:02:19.909Z,2.90
2018-11-11T08:04:47.188Z,1.93
2018-11-11T08:07:14.546Z,2.13
2018-11-11T08:09:41.903Z,2.77
2018-11-11T08:12:09.265Z,1.67
2018-11-11T08:14:36.807Z,2.10
2018-11-11T08:17:04.258Z,1.77
2018-11-11T08:19:31.867Z,1.40
2018-11-11T08:21:59.302Z,1.63
2018-11-11T08:24:26.655Z,1.03
2018-11-11T08:26:54.027Z,1.40
2018-11-11T08:29:21.422Z,1.53
2018-11-11T08:31:49.360Z,2.13
2018-11-11T08:34:16.927Z,1.83
2018-11-11T08:36:44.688Z,1.50
2018-11-11T08:39:13.109Z,1.43
2018-11-11T08:41:43.018Z,1.40
2018-11-11T08:44:11.312Z,3.23
2018-11-11T08:46:40.147Z,1.13
2018-11-11T08:49:07.569Z,0.90
2018-11-11T08:51:35.029Z,1.17
2018-11-11T08:54:02.454Z,1.40
2018-11-11T08:56:30.355Z,1.30
2018-11-11T08:58:57.807Z,1.27
2018-11-11T09:01:25.215Z,1.90
2018-11-11T09:03:52.669Z,1.20
2018-11-11T09:06:20.389Z,1.20
2018-11-11T09:08:47.774Z,1.00
2018-11-11T09:11:15.152Z,2.17
2018-11-11T09:13:42.902Z,1.20
2018-11-11T09:16:10.347Z,1.73
2018-11-11T09:18:37.742Z,2.57
2018-11-11T09:21:05.160Z,1.80
2018-11-11T09:23:32.575Z,1.00
2018-11-11T09:25:59.964Z,2.20
2018-11-11T09:28:27.378Z,2.50
2018-11-11T09:30:54.824Z,1.77
2018-11-11T09:33:22.260Z,1.47
2018-11-11T09:35:49.682Z,1.10
2018-11-11T09:38:17.102Z,0.70
2018-11-11T09:40:45.589Z,1.00
2018-11-11T09:43:13.100Z,0.80
2018-11-11T09:45:40.596Z,0.67
2018-11-11T09:48:08.035Z,1.13
2018-11-11T09:50:35.688Z,0.60
2018-11-11T09:53:03.048Z,1.30
2018-11-11T09:55:30.468Z,3.73
2018-11-11T09:57:57.837Z,1.00
2018-11-11T10:00:25.506Z,1.17
2018-11-11T10:02:59.627Z,0.50
2018-11-11T10:05:38.540Z,0.67
2018-11-11T10:08:13.681Z,1.23
2018-11-11T10:11:02.567Z,1.53
2018-11-11T10:13:37.684Z,0.80
2018-11-11T10:16:13.273Z,0.77
2018-11-11T10:28:56.464Z,0.60
2018-11-11T10:31:30.077Z,0.70
2018-11-11T10:34:38.428Z,1.37
2018-11-11T10:37:09.780Z,0.70
2018-11-11T10:39:42.026Z,1.03
2018-11-11T10:42:14.050Z,0.80
2018-11-11T10:44:45.946Z,1.37
2018-11-11T10:47:18.690Z,0.40
2018-11-11T10:49:51.651Z,0.53
2018-11-11T10:52:19.040Z,3.53
2018-11-11T10:54:46.412Z,0.63
2018-11-11T10:57:13.770Z,1.27
2018-11-11T10:59:41.116Z,0.93
2018-11-11T11:02:13.986Z,1.23
2018-11-11T11:04:46.828Z,1.00
2018-11-11T11:07:14.224Z,1.47
2018-11-11T11:09:41.595Z,0.57
2018-11-11T11:12:08.974Z,2.83
2018-11-11T11:14:36.376Z,1.00
2018-11-11T11:17:04.099Z,2.53
2018-11-11T11:19:31.479Z,1.27
2018-11-11T11:21:58.889Z,1.63
2018-11-11T11:24:26.346Z,0.87
2018-11-11T11:26:53.747Z,1.47
2018-11-11T11:29:21.209Z,8.87
2018-11-11T11:31:48.771Z,2.63
2018-11-11T11:34:16.533Z,1.13
2018-11-11T11:36:43.914Z,1.43
2018-11-11T11:39:11.359Z,3.33
2018-11-11T11:41:38.791Z,2.67
2018-11-11T11:44:06.256Z,0.90
2018-11-11T11:46:33.700Z,0.80
2018-11-11T11:49:01.355Z,1.73
2018-11-11T11:51:28.758Z,2.10
2018-11-11T11:53:56.231Z,3.00
2018-11-11T11:56:23.645Z,2.37
2018-11-11T11:58:51.026Z,1.87
2018-11-11T12:01:18.392Z,2.17
2018-11-11T12:03:45.870Z,1.23
2018-11-11T12:06:13.311Z,2.20
2018-11-11T12:08:40.797Z,1.97
2018-11-11T12:11:08.173Z,2.60
2018-11-11T12:13:35.568Z,2.20
2018-11-11T12:16:03.013Z,1.27
2018-11-11T12:18:30.403Z,1.83
2018-11-11T12:20:57.812Z,3.27
2018-11-11T12:23:25.311Z,3.03
2018-11-11T12:25:52.768Z,1.73
2018-11-11T12:28:20.129Z,4.00
2018-11-11T12:30:47.583Z,1.67
2018-11-11T12:33:14.993Z,4.33
2018-11-11T12:35:42.342Z,2.00
2018-11-11T12:38:09.748Z,1.60
2018-11-11T12:40:37.166Z,3.77
2018-11-11T12:43:04.546Z,2.17
2018-11-11T12:45:31.935Z,2.30
2018-11-11T12:47:59.270Z,3.37
2018-11-11T12:50:26.717Z,2.23
2018-11-11T12:52:53.998Z,3.33
2018-11-11T12:55:21.425Z,3.37
2018-11-11T12:57:48.718Z,1.67
2018-11-11T13:00:16.308Z,3.07
2018-11-11T13:02:43.685Z,3.03
2018-11-11T13:05:11.559Z,1.57
2018-11-11T13:07:38.928Z,0.87
2018-11-11T13:10:07.106Z,2.20
2018-11-11T13:12:34.494Z,1.53
2018-11-11T13:15:01.911Z,4.23
2018-11-11T13:17:29.540Z,3.30
2018-11-11T13:19:56.916Z,1.67
2018-11-11T13:22:24.366Z,2.13
2018-11-11T13:24:51.773Z,1.80
2018-11-11T13:27:19.159Z,1.00
2018-11-11T13:29:46.608Z,1.63
2018-11-11T13:32:13.997Z,1.63
2018-11-11T13:34:41.344Z,1.77
2018-11-11T13:37:08.714Z,2.10
2018-11-11T13:39:36.094Z,1.80
2018-11-11T13:42:03.634Z,2.70
2018-11-11T13:44:31.529Z,4.23
2018-11-11T13:46:58.962Z,3.73
2018-11-11T13:49:26.250Z,1.43
2018-11-11T13:51:53.624Z,3.63
2018-11-11T13:54:21.046Z,2.47
2018-11-11T13:56:48.476Z,2.40
2018-11-11T13:59:16.278Z,2.37
2018-11-11T14:01:43.769Z,2.83
2018-11-11T14:04:11.205Z,2.40
2018-11-11T14:06:38.626Z,1.33
2018-11-11T14:09:09.269Z,0.83
2018-11-11T14:11:36.707Z,2.07
2018-11-11T14:14:04.115Z,1.30
2018-11-11T14:16:31.506Z,1.37
2018-11-11T14:18:59.187Z,1.43
2018-11-11T14:21:26.401Z,2.70
2018-11-11T14:23:54.236Z,2.50
2018-11-11T14:26:21.732Z,2.13
2018-11-11T14:28:49.118Z,3.17
2018-11-11T14:31:16.433Z,0.77
2018-11-11T14:33:43.805Z,1.27
2018-11-11T14:36:11.344Z,1.07
2018-11-11T14:38:38.938Z,0.80
2018-11-11T14:41:06.356Z,1.83
2018-11-11T14:43:33.830Z,0.50
2018-11-11T14:46:01.199Z,0.80
2018-11-11T14:48:28.608Z,1.90
2018-11-11T14:50:56.166Z,0.80
2018-11-11T14:53:23.522Z,0.93
2018-11-11T14:55:50.976Z,0.80
2018-11-11T14:58:18.541Z,2.30
2018-11-11T15:00:45.788Z,1.70
2018-11-11T15:03:16.045Z,2.90
2018-11-11T15:05:43.372Z,3.53
2018-11-11T15:08:10.960Z,2.10
2018-11-11T15:10:38.553Z,0.73
2018-11-11T15:13:06.224Z,2.57
2018-11-11T15:15:33.703Z,0.50
2018-11-11T15:18:01.542Z,1.10
2018-11-11T15:20:29.045Z,1.53
2018-11-11T15:22:56.354Z,3.53
2018-11-11T15:25:25.059Z,0.97
2018-11-11T15:27:52.341Z,1.00
2018-11-11T15:30:21.995Z,2.20
2018-11-11T15:32:49.750Z,2.10
2018-11-11T15:35:17.173Z,2.00
2018-11-11T15:37:44.545Z,1.00
2018-11-11T15:40:15.155Z,1.90
2018-11-11T15:42:42.647Z,1.43
2018-11-11T15:45:13.170Z,2.20
2018-11-11T15:47:40.548Z,1.20
2018-11-11T15:50:23.757Z,3.43
2018-11-11T15:52:53.489Z,2.00
2018-11-11T15:55:22.080Z,1.40
2018-11-11T15:57:49.633Z,1.20
2018-11-11T16:00:20.310Z,1.27
2018-11-11T16:02:47.682Z,1.50
2018-11-11T16:05:15.828Z,1.10
2018-11-11T16:07:44.220Z,2.13
2018-11-11T16:10:12.917Z,2.17
2018-11-11T16:12:40.782Z,1.73
2018-11-11T16:15:09.164Z,2.30
2018-11-11T16:17:36.764Z,2.80
2018-11-11T16:20:04.786Z,5.30
2018-11-11T16:22:32.256Z,5.80
2018-11-11T16:24:59.699Z,2.90
2018-11-11T16:27:27.150Z,2.90
2018-11-11T16:29:54.914Z,2.53
2018-11-11T16:32:22.408Z,2.40
2018-11-11T16:34:49.808Z,4.50
2018-11-11T16:37:17.243Z,6.10
2018-11-11T16:39:44.775Z,5.33
2018-11-11T16:42:12.107Z,6.93
2018-11-11T16:44:45.072Z,7.57
2018-11-11T16:47:12.635Z,10.70
2018-11-11T16:49:40.095Z,10.63
2018-11-11T16:52:07.903Z,11.70
2018-11-11T16:54:36.237Z,6.20
2018-11-11T16:57:03.889Z,6.90
2018-11-11T16:59:32.532Z,8.27
2018-11-11T17:02:00.317Z,11.63
2018-11-11T17:04:27.898Z,6.30
2018-11-11T17:06:55.679Z,4.67
2018-11-11T17:12:29.089Z,6.10
2018-11-11T17:14:56.480Z,4.17
2018-11-11T17:17:23.939Z,6.10
2018-11-11T17:19:51.737Z,8.03
2018-11-11T17:22:19.134Z,4.70
2018-11-11T17:24:46.462Z,5.70
2018-11-11T17:27:13.878Z,6.70
2018-11-11T17:29:41.263Z,5.00
2018-11-11T17:32:08.607Z,3.90
2018-11-11T17:34:36.120Z,5.30
2018-11-11T17:37:03.497Z,5.47
2018-11-11T17:39:30.991Z,5.00
2018-11-11T17:41:58.303Z,6.70
2018-11-11T17:44:25.682Z,9.50
2018-11-11T17:46:53.206Z,6.50
2018-11-11T17:49:20.620Z,10.10
2018-11-11T17:54:21.426Z,6.03
2018-11-11T17:56:49.002Z,4.43
2018-11-11T17:59:16.457Z,4.33
2018-11-11T18:01:43.864Z,6.43
2018-11-11T18:04:11.244Z,5.47
2018-11-11T18:06:38.616Z,5.53
2018-11-11T18:09:07.300Z,4.87
2018-11-11T18:11:34.582Z,4.90
2018-11-11T18:14:02.063Z,9.17
2018-11-11T18:16:29.443Z,6.60
2018-11-11T18:18:56.742Z,5.20
2018-11-11T18:21:24.051Z,5.00
2018-11-11T18:23:51.380Z,6.30
2018-11-11T18:26:18.870Z,6.67
2018-11-11T18:28:46.904Z,8.77
2018-11-11T18:31:14.442Z,8.27
2018-11-11T18:33:41.851Z,4.67
2018-11-11T18:36:09.200Z,5.77
2018-11-11T18:38:36.659Z,3.50
2018-11-11T18:41:03.987Z,5.43
2018-11-11T18:43:31.340Z,4.83
2018-11-11T18:45:58.719Z,5.53
2018-11-11T18:48:26.117Z,4.73
2018-11-11T18:50:53.480Z,4.70
2018-11-11T18:53:20.913Z,6.30
2018-11-11T18:55:48.362Z,5.13
2018-11-11T18:58:15.997Z,4.50
2018-11-11T19:00:43.384Z,9.37
2018-11-11T19:03:10.779Z,12.13
2018-11-11T19:05:38.134Z,7.17
2018-11-11T19:08:05.558Z,6.43
2018-11-11T19:13:13.143Z,5.07
2018-11-11T19:15:40.492Z,6.23
2018-11-11T19:18:07.850Z,3.50
2018-11-11T19:20:35.185Z,4.77
2018-11-11T19:23:02.565Z,4.13
2018-11-11T19:25:30.934Z,5.40
2018-11-11T19:27:59.434Z,4.17
2018-11-11T19:30:27.839Z,3.43
2018-11-11T19:32:55.171Z,3.10
2018-11-11T19:35:22.501Z,4.07
2018-11-11T19:37:51.821Z,5.23
2018-11-11T19:40:20.470Z,3.90
2018-11-11T19:42:48.093Z,4.20
2018-11-11T19:45:16.966Z,2.43
2018-11-11T19:47:44.554Z,3.83
2018-11-11T19:50:13.292Z,2.63
2018-11-11T19:52:42.285Z,5.00
2018-11-11T19:55:10.790Z,2.47
2018-11-11T19:57:38.499Z,2.50
2018-11-11T20:00:08.149Z,3.13
2018-11-11T20:02:36.457Z,4.50
2018-11-11T20:05:04.020Z,2.73
2018-11-11T20:07:31.558Z,3.73
2018-11-11T20:09:59.491Z,5.37
2018-11-11T20:12:27.022Z,3.70
2018-11-11T20:14:54.557Z,3.57
2018-11-11T20:17:22.136Z,3.47
2018-11-11T20:19:49.872Z,3.17
2018-11-11T20:22:17.472Z,3.67
2018-11-11T20:24:45.112Z,3.60
2018-11-11T20:27:12.405Z,3.37
2018-11-11T20:29:39.975Z,3.53
2018-11-11T20:32:07.445Z,3.20
2018-11-11T20:34:34.773Z,3.40
2018-11-11T20:37:02.203Z,4.00
2018-11-11T20:39:29.583Z,5.23
2018-11-11T20:41:56.976Z,5.87
2018-11-11T20:44:59.681Z,4.30
2018-11-11T20:47:27.066Z,4.60
2018-11-11T20:49:54.666Z,4.77
2018-11-11T20:52:22.135Z,4.47
2018-11-11T20:54:49.492Z,8.30
2018-11-11T20:57:16.937Z,4.70
2018-11-11T20:59:44.483Z,4.77
2018-11-11T21:02:11.870Z,5.40
2018-11-11T21:04:39.243Z,10.50
2018-11-11T21:07:06.776Z,4.60
2018-11-11T21:09:34.193Z,4.27
2018-11-11T21:12:01.667Z,5.13
2018-11-11T21:14:29.057Z,4.27
2018-11-11T21:16:56.529Z,4.77
2018-11-11T21:19:23.919Z,4.80
2018-11-11T21:21:51.375Z,4.60
2018-11-11T21:24:18.777Z,4.83
2018-11-11T21:26:46.203Z,6.43
2018-11-11T21:29:13.564Z,4.80
2018-11-11T21:31:41.287Z,4.10
2018-11-11T21:34:08.628Z,6.00
2018-11-11T21:36:36.028Z,7.53
2018-11-11T21:39:04.218Z,5.60
2018-11-11T21:41:31.588Z,5.30
2018-11-11T21:43:59.028Z,5.13
2018-11-11T21:46:26.936Z,7.43
2018-11-11T21:48:54.354Z,5.43
2018-11-11T21:51:21.759Z,6.50
2018-11-11T21:53:49.126Z,5.60
2018-11-11T21:58:55.132Z,5.77
2018-11-11T22:01:22.647Z,5.53
2018-11-11T22:03:50.247Z,5.90
2018-11-11T22:06:18.073Z,6.03
2018-11-11T22:08:45.831Z,5.63
2018-11-11T22:11:13.264Z,5.80
2018-11-11T22:13:40.686Z,5.87
2018-11-11T22:16:08.125Z,6.73
2018-11-11T22:18:35.547Z,5.43
2018-11-11T22:21:02.990Z,5.03
2018-11-11T22:23:30.422Z,5.40
2018-11-11T22:25:57.741Z,6.30
2018-11-11T22:28:25.068Z,5.70
2018-11-11T22:30:52.405Z,5.77
2018-11-11T22:33:19.827Z,6.70
2018-11-11T22:35:47.309Z,5.70
2018-11-11T22:38:14.701Z,5.13
2018-11-11T22:40:42.099Z,6.07
2018-11-11T22:43:09.399Z,5.50
2018-11-11T22:45:36.739Z,7.47
2018-11-11T22:48:04.186Z,5.80
2018-11-11T22:50:31.505Z,6.23
2018-11-11T22:52:58.825Z,7.40
2018-11-11T22:55:26.169Z,6.43
2018-11-11T22:57:53.549Z,6.30
2018-11-11T23:00:26.743Z,5.93
2018-11-11T23:02:54.398Z,6.43
2018-11-11T23:05:22.255Z,6.10
2018-11-11T23:07:49.738Z,6.53
2018-11-11T23:10:17.109Z,6.33
2018-11-11T23:12:44.496Z,6.50
2018-11-11T23:15:12.823Z,5.70
2018-11-11T23:17:40.234Z,5.37
2018-11-11T23:20:08.755Z,5.87
2018-11-11T23:22:36.092Z,5.27
2018-11-11T23:25:03.466Z,5.53
2018-11-11T23:27:30.800Z,4.87
2018-11-11T23:29:58.653Z,4.93
2018-11-11T23:32:25.929Z,5.30
2018-11-11T23:34:53.317Z,4.80
2018-11-11T23:37:20.958Z,5.70
2018-11-11T23:39:48.317Z,5.23
2018-11-11T23:42:15.781Z,5.60
2018-11-11T23:44:43.215Z,5.17
2018-11-11T23:47:10.504Z,4.60
2018-11-11T23:49:37.876Z,6.67
2018-11-11T23:52:05.483Z,4.70
2018-11-11T23:54:33.035Z,4.77
2018-11-11T23:57:00.435Z,4.93
2018-11-11T23:59:27.823Z,5.53
